Time;durP1;ratioP1;P1;durP2;ratioP2;P2;SDS_P1;SDS_P2;PMS_P1;PMS_P2;Temp;Humidity;BMP_temperature;BMP_pressure;BME280_temperature;BME280_humidity;BME280_pressure;Samples;Min_cycle;Max_cycle;Signal;HPM_P1;HPM_P2
2022/10/20 00:04:25;;;;;;;3.60;1.92;;;;;;;;;;10487218;28;20455;-80
2022/10/20 00:09:28;;;;;;;2.30;2.00;;;;;;;;;;10478466;28;20070;-80
2022/10/20 00:14:31;;;;;;;5.25;1.88;;;;;;;;;;10470786;28;20037;-79
2022/10/20 00:19:36;;;;;;;2.65;1.90;;;;;;;;;;10476206;28;20041;-79
2022/10/20 00:24:39;;;;;;;5.28;2.30;;;;;;;;;;10485772;28;20628;-79
2022/10/20 00:29:42;;;;;;;2.25;1.90;;;;;;;;;;10477068;28;20044;-80
2022/10/20 00:34:47;;;;;;;7.50;2.38;;;;;;;;;;10461466;28;20036;-80
2022/10/20 00:39:50;;;;;;;3.92;2.33;;;;;;;;;;10473921;28;20642;-80
2022/10/20 00:44:55;;;;;;;3.10;2.10;;;;;;;;;;10476539;28;20562;-80
2022/10/20 00:50:06;;;;;;;4.28;2.50;;;;;;;;;;10473721;28;20047;-79
2022/10/20 00:55:11;;;;;;;2.70;1.60;;;;;;;;;;10485207;28;20029;-80
2022/10/20 01:00:16;;;;;;;3.67;2.13;;;;;;;;;;10483079;28;20055;-81
2022/10/20 01:05:21;;;;;;;1.95;1.60;;;;;;;;;;10487305;28;20071;-80
2022/10/20 01:10:28;;;;;;;2.08;1.88;;;;;;;;;;10486637;28;20048;-80
2022/10/20 01:15:41;;;;;;;3.15;1.95;;;;;;;;;;10485905;28;20040;-80
2022/10/20 01:21:03;;;;;;;5.57;2.45;;;;;;;;;;10462527;28;20056;-81
2022/10/20 01:26:28;;;;;;;2.45;2.15;;;;;;;;;;10482505;28;20124;-82
2022/10/20 01:31:40;;;;;;;2.95;1.92;;;;;;;;;;10465825;28;20041;-81
2022/10/20 01:36:51;;;;;;;2.42;1.88;;;;;;;;;;10469939;28;20045;-81
2022/10/20 01:41:58;;;;;;;3.28;1.83;;;;;;;;;;10481968;28;20067;-80
2022/10/20 01:47:04;;;;;;;3.35;2.33;;;;;;;;;;10478316;28;20051;-79
2022/10/20 01:52:09;;;;;;;4.57;2.38;;;;;;;;;;10479514;28;20044;-80
2022/10/20 01:57:30;;;;;;;7.68;2.25;;;;;;;;;;10478304;28;20048;-77
2022/10/20 02:02:55;;;;;;;3.08;2.50;;;;;;;;;;10478747;28;20041;-78
2022/10/20 02:08:09;;;;;;;4.18;2.00;;;;;;;;;;10480770;28;20058;-80
2022/10/20 02:13:13;;;;;;;6.15;2.22;;;;;;;;;;10464440;28;20230;-79
2022/10/20 02:18:22;;;;;;;2.83;1.98;;;;;;;;;;10476824;28;20124;-80
2022/10/20 02:23:26;;;;;;;3.13;2.03;;;;;;;;;;10468585;28;20049;-79
2022/10/20 02:28:29;;;;;;;3.40;2.40;;;;;;;;;;10472906;28;20041;-79
2022/10/20 02:33:35;;;;;;;2.72;2.28;;;;;;;;;;10470120;28;20459;-78
2022/10/20 02:38:38;;;;;;;3.15;2.05;;;;;;;;;;10461970;28;20045;-80
2022/10/20 02:43:41;;;;;;;3.47;2.15;;;;;;;;;;10474985;28;20043;-79
2022/10/20 02:48:46;;;;;;;3.78;2.30;;;;;;;;;;10468027;28;20049;-80
2022/10/20 02:53:49;;;;;;;4.30;2.05;;;;;;;;;;10460894;28;20056;-81
2022/10/20 02:58:53;;;;;;;3.13;1.98;;;;;;;;;;10473543;28;20049;-79
2022/10/20 03:03:58;;;;;;;2.15;1.77;;;;;;;;;;10483253;28;20053;-80
2022/10/20 03:09:02;;;;;;;2.70;2.00;;;;;;;;;;10470485;28;20043;-79
2022/10/20 03:14:05;;;;;;;2.78;1.83;;;;;;;;;;10470790;28;20366;-79
2022/10/20 03:19:10;;;;;;;2.55;2.10;;;;;;;;;;10473390;28;20052;-79
2022/10/20 03:24:14;;;;;;;3.30;2.10;;;;;;;;;;10473742;28;20491;-80
2022/10/20 03:29:17;;;;;;;3.58;1.75;;;;;;;;;;10470358;28;20068;-79
2022/10/20 03:34:22;;;;;;;2.35;2.00;;;;;;;;;;10480728;28;20389;-79
2022/10/20 03:39:25;;;;;;;3.30;2.17;;;;;;;;;;10486286;28;20055;-80
2022/10/20 03:44:28;;;;;;;4.68;2.50;;;;;;;;;;10464490;28;20040;-80
2022/10/20 03:49:33;;;;;;;3.15;2.13;;;;;;;;;;10470680;28;20059;-82
2022/10/20 03:54:37;;;;;;;3.10;2.30;;;;;;;;;;10479665;28;20043;-80
2022/10/20 03:59:40;;;;;;;3.05;2.20;;;;;;;;;;10480475;28;20041;-80
2022/10/20 04:04:45;;;;;;;2.92;2.20;;;;;;;;;;10478415;28;20082;-81
2022/10/20 04:09:48;;;;;;;4.15;2.15;;;;;;;;;;10479910;28;20071;-81
2022/10/20 04:14:52;;;;;;;5.28;2.20;;;;;;;;;;10487065;28;20040;-80
2022/10/20 04:19:56;;;;;;;3.85;2.45;;;;;;;;;;10486991;28;20049;-80
2022/10/20 04:24:59;;;;;;;3.25;2.40;;;;;;;;;;10479125;28;20040;-78
2022/10/20 04:30:03;;;;;;;3.40;1.95;;;;;;;;;;10479290;28;20534;-79
2022/10/20 04:35:08;;;;;;;3.10;1.92;;;;;;;;;;10488513;28;20036;-80
2022/10/20 04:40:12;;;;;;;4.00;2.97;;;;;;;;;;10484243;28;20051;-81
2022/10/20 04:45:16;;;;;;;5.00;2.78;;;;;;;;;;10463296;28;20051;-79
2022/10/20 04:50:20;;;;;;;5.63;3.08;;;;;;;;;;10490350;28;20107;-81
2022/10/20 04:55:33;;;;;;;3.58;2.50;;;;;;;;;;10490345;28;20041;-82
2022/10/20 05:00:38;;;;;;;4.25;2.30;;;;;;;;;;10479691;28;20043;-79
2022/10/20 05:05:43;;;;;;;3.92;2.30;;;;;;;;;;10477627;28;20055;-80
2022/10/20 05:10:46;;;;;;;1.75;1.48;;;;;;;;;;10471048;28;20040;-81
2022/10/20 05:15:52;;;;;;;3.47;2.10;;;;;;;;;;10480972;28;20526;-80
2022/10/20 05:20:57;;;;;;;3.03;2.03;;;;;;;;;;10483073;28;20053;-81
2022/10/20 05:26:12;;;;;;;2.65;2.25;;;;;;;;;;10473061;28;20064;-80
2022/10/20 05:31:16;;;;;;;5.82;1.77;;;;;;;;;;10497632;28;20055;-79
2022/10/20 05:36:23;;;;;;;2.47;1.60;;;;;;;;;;10463530;28;20040;-80
2022/10/20 05:41:28;;;;;;;2.33;1.70;;;;;;;;;;10496025;28;20044;-78
2022/10/20 05:46:34;;;;;;;4.90;2.17;;;;;;;;;;10488622;28;20067;-80
2022/10/20 05:51:38;;;;;;;3.83;2.25;;;;;;;;;;10472173;28;20064;-79
2022/10/20 05:56:42;;;;;;;4.18;2.40;;;;;;;;;;10495882;28;20039;-79
2022/10/20 06:01:48;;;;;;;3.95;2.50;;;;;;;;;;10495381;28;20044;-78
2022/10/20 06:06:53;;;;;;;4.00;2.22;;;;;;;;;;10496034;28;20056;-79
2022/10/20 06:11:57;;;;;;;2.65;1.98;;;;;;;;;;10484406;28;20083;-80
2022/10/20 06:17:00;;;;;;;5.13;2.10;;;;;;;;;;10497453;28;20049;-78
2022/10/20 06:22:04;;;;;;;3.65;1.80;;;;;;;;;;10491685;28;20504;-81
2022/10/20 06:27:09;;;;;;;3.83;2.17;;;;;;;;;;10488041;28;20048;-78
2022/10/20 06:32:12;;;;;;;4.05;2.22;;;;;;;;;;10494659;28;20098;-81
2022/10/20 06:37:17;;;;;;;3.88;3.28;;;;;;;;;;10487220;28;20064;-80
2022/10/20 06:42:21;;;;;;;3.83;2.22;;;;;;;;;;10493410;28;20500;-82
2022/10/20 06:47:24;;;;;;;5.60;3.15;;;;;;;;;;10478896;28;20048;-79
2022/10/20 06:52:29;;;;;;;5.32;4.00;;;;;;;;;;10493868;28;20040;-78
2022/10/20 06:57:32;;;;;;;3.90;3.10;;;;;;;;;;10483900;28;20045;-79
2022/10/20 07:02:38;;;;;;;3.72;2.65;;;;;;;;;;10492623;28;20055;-78
2022/10/20 07:07:43;;;;;;;4.72;2.58;;;;;;;;;;10470913;28;20049;-78
2022/10/20 07:12:47;;;;;;;3.55;2.50;;;;;;;;;;10483702;28;20052;-82
2022/10/20 07:17:50;;;;;;;5.28;3.75;;;;;;;;;;10475510;28;20056;-79
2022/10/20 07:22:56;;;;;;;3.45;2.50;;;;;;;;;;10492738;28;20119;-81
2022/10/20 07:27:59;;;;;;;3.42;2.47;;;;;;;;;;10463282;28;20044;-78
2022/10/20 07:33:02;;;;;;;4.05;3.40;;;;;;;;;;10478080;28;20041;-80
2022/10/20 07:38:07;;;;;;;3.40;2.72;;;;;;;;;;10490067;28;20056;-79
2022/10/20 07:43:10;;;;;;;3.75;2.63;;;;;;;;;;10478290;28;20520;-80
2022/10/20 07:48:13;;;;;;;3.95;2.50;;;;;;;;;;10484603;28;20048;-80
2022/10/20 07:53:18;;;;;;;3.90;3.00;;;;;;;;;;10473220;28;20045;-79
2022/10/20 07:58:21;;;;;;;5.78;3.40;;;;;;;;;;10491116;28;20036;-80
2022/10/20 08:03:25;;;;;;;4.38;3.15;;;;;;;;;;10489971;28;20052;-83
2022/10/20 08:08:29;;;;;;;4.78;3.33;;;;;;;;;;10483100;28;20460;-79
2022/10/20 08:13:32;;;;;;;5.28;3.50;;;;;;;;;;10475363;28;20523;-78
2022/10/20 08:18:36;;;;;;;4.93;3.00;;;;;;;;;;10474005;28;20051;-78
2022/10/20 08:23:44;;;;;;;3.43;2.77;;;;;;;;;;10480787;28;20063;-79
2022/10/20 08:28:48;;;;;;;5.60;2.92;;;;;;;;;;10478201;28;20063;-80
2022/10/20 08:33:51;;;;;;;2.97;2.50;;;;;;;;;;10474524;28;20051;-80
2022/10/20 08:38:59;;;;;;;9.05;2.42;;;;;;;;;;10468411;28;20087;-80
2022/10/20 08:44:04;;;;;;;4.50;2.85;;;;;;;;;;10466496;28;20132;-78
2022/10/20 08:49:15;;;;;;;4.13;3.13;;;;;;;;;;10480448;28;20036;-80
2022/10/20 08:54:20;;;;;;;4.35;2.83;;;;;;;;;;10489739;28;20048;-78
2022/10/20 08:59:28;;;;;;;4.55;2.83;;;;;;;;;;10474930;28;20041;-78
2022/10/20 09:04:36;;;;;;;3.85;3.00;;;;;;;;;;10488281;28;20040;-81
2022/10/20 09:09:41;;;;;;;3.22;2.55;;;;;;;;;;10480686;28;20543;-78
2022/10/20 09:14:44;;;;;;;2.83;2.47;;;;;;;;;;10488243;28;20424;-78
2022/10/20 09:19:53;;;;;;;4.93;2.95;;;;;;;;;;10489914;28;20039;-79
2022/10/20 09:24:58;;;;;;;3.92;3.00;;;;;;;;;;10479517;28;20047;-80
2022/10/20 09:30:14;;;;;;;3.30;2.83;;;;;;;;;;10474456;28;20053;-79
2022/10/20 09:35:26;;;;;;;4.03;3.22;;;;;;;;;;10490254;28;20045;-79
2022/10/20 09:40:32;;;;;;;4.88;3.40;;;;;;;;;;10490271;28;20049;-79
2022/10/20 09:45:37;;;;;;;4.60;3.17;;;;;;;;;;10473448;28;20056;-81
2022/10/20 09:50:45;;;;;;;4.97;3.13;;;;;;;;;;10489973;28;20072;-80
2022/10/20 09:55:51;;;;;;;4.47;3.25;;;;;;;;;;10478064;28;20052;-82
2022/10/20 10:01:01;;;;;;;3.88;3.20;;;;;;;;;;10476582;28;20691;-80
2022/10/20 10:06:26;;;;;;;6.03;4.10;;;;;;;;;;10510308;28;20599;-79
2022/10/20 10:11:35;;;;;;;6.55;3.97;;;;;;;;;;10511095;28;20044;-82
2022/10/20 10:16:43;;;;;;;5.40;4.28;;;;;;;;;;10494932;28;20704;-81
2022/10/20 10:21:51;;;;;;;4.50;3.55;;;;;;;;;;10494943;28;20048;-79
2022/10/20 10:26:56;;;;;;;5.25;3.53;;;;;;;;;;10487324;28;20048;-80
2022/10/20 10:32:01;;;;;;;5.53;3.87;;;;;;;;;;10493983;28;20048;-78
2022/10/20 10:37:04;;;;;;;6.15;4.60;;;;;;;;;;10495778;28;20044;-78
2022/10/20 10:42:27;;;;;;;6.95;4.30;;;;;;;;;;10477709;28;20043;-80
2022/10/20 10:47:56;;;;;;;7.95;3.78;;;;;;;;;;10495932;28;20048;-78
2022/10/20 10:53:11;;;;;;;7.28;5.13;;;;;;;;;;10478955;28;20044;-80
2022/10/20 10:58:26;;;;;;;7.75;4.93;;;;;;;;;;10485239;28;20500;-79
2022/10/20 11:03:55;;;;;;;8.60;4.68;;;;;;;;;;10496424;28;20049;-80
2022/10/20 11:09:16;;;;;;;6.55;4.78;;;;;;;;;;10478532;28;20531;-80
2022/10/20 11:14:34;;;;;;;5.90;4.45;;;;;;;;;;10481641;28;20128;-81
2022/10/20 11:19:56;;;;;;;6.75;4.55;;;;;;;;;;10474284;28;20040;-81
2022/10/20 11:25:10;;;;;;;4.47;3.72;;;;;;;;;;10474936;28;20041;-81
2022/10/20 11:30:18;;;;;;;5.72;4.55;;;;;;;;;;10488647;28;20052;-80
2022/10/20 11:35:31;;;;;;;6.28;4.80;;;;;;;;;;10487098;28;20050;-80
2022/10/20 11:40:39;;;;;;;4.57;3.67;;;;;;;;;;10463863;28;20335;-81
2022/10/20 11:45:49;;;;;;;6.40;4.72;;;;;;;;;;10473936;28;20040;-81
2022/10/20 11:51:05;;;;;;;7.82;5.20;;;;;;;;;;10462931;28;20048;-80
2022/10/20 11:56:45;;;;;;;5.53;4.28;;;;;;;;;;10477668;28;20410;-81
2022/10/20 12:02:13;;;;;;;9.90;5.65;;;;;;;;;;10473600;28;20045;-79
2022/10/20 12:07:44;;;;;;;10.45;6.00;;;;;;;;;;10480703;28;20139;-79
2022/10/20 12:12:55;;;;;;;7.85;5.65;;;;;;;;;;10471594;28;20719;-80
2022/10/20 12:18:04;;;;;;;5.68;4.18;;;;;;;;;;10486647;28;20036;-80
2022/10/20 12:23:47;;;;;;;5.07;3.65;;;;;;;;;;10477430;28;20064;-81
2022/10/20 12:28:51;;;;;;;5.75;3.47;;;;;;;;;;10474227;28;20047;-80
2022/10/20 12:34:02;;;;;;;6.65;4.43;;;;;;;;;;10478587;28;20511;-80
2022/10/20 12:39:18;;;;;;;7.88;6.07;;;;;;;;;;10486546;28;20036;-79
2022/10/20 12:44:22;;;;;;;7.78;5.22;;;;;;;;;;10465030;28;20060;-80
2022/10/20 12:49:31;;;;;;;6.75;4.10;;;;;;;;;;10480008;28;20037;-79
2022/10/20 12:54:38;;;;;;;5.53;4.10;;;;;;;;;;10487258;28;20048;-80
2022/10/20 12:59:42;;;;;;;5.22;4.18;;;;;;;;;;10480051;28;20051;-80
2022/10/20 13:04:56;;;;;;;5.13;4.07;;;;;;;;;;10478004;28;20044;-79
2022/10/20 13:10:00;;;;;;;4.00;3.42;;;;;;;;;;10473964;28;20045;-80
2022/10/20 13:15:11;;;;;;;4.25;3.15;;;;;;;;;;10473341;28;20420;-80
2022/10/20 13:20:28;;;;;;;4.70;3.60;;;;;;;;;;10484656;28;20377;-80
2022/10/20 13:25:37;;;;;;;5.38;3.25;;;;;;;;;;10484519;28;20037;-80
2022/10/20 13:31:01;;;;;;;3.88;2.92;;;;;;;;;;10478426;28;20041;-79
2022/10/20 13:36:12;;;;;;;5.57;3.72;;;;;;;;;;10474532;28;20047;-79
2022/10/20 13:41:24;;;;;;;4.75;3.75;;;;;;;;;;10474975;28;20044;-80
2022/10/20 13:46:43;;;;;;;5.15;3.65;;;;;;;;;;10468774;28;20036;-79
2022/10/20 13:51:52;;;;;;;4.15;3.20;;;;;;;;;;10478714;28;20459;-80
2022/10/20 13:56:56;;;;;;;5.45;4.40;;;;;;;;;;10477317;28;20454;-80
2022/10/20 14:02:02;;;;;;;7.57;4.80;;;;;;;;;;10468712;28;20044;-79
2022/10/20 14:07:12;;;;;;;6.57;4.13;;;;;;;;;;10481509;28;20412;-79
2022/10/20 14:12:19;;;;;;;4.05;2.92;;;;;;;;;;10486436;28;20079;-79
2022/10/20 14:17:24;;;;;;;3.72;3.13;;;;;;;;;;10486051;28;20048;-79
2022/10/20 14:22:28;;;;;;;6.15;3.03;;;;;;;;;;10485654;28;20059;-80
2022/10/20 14:27:35;;;;;;;4.13;3.55;;;;;;;;;;10483571;28;20071;-80
2022/10/20 14:32:41;;;;;;;3.60;3.28;;;;;;;;;;10486916;28;20049;-80
2022/10/20 14:37:51;;;;;;;3.80;3.10;;;;;;;;;;10481818;28;20032;-80
2022/10/20 14:42:59;;;;;;;4.22;3.17;;;;;;;;;;10479161;28;20509;-81
2022/10/20 14:48:02;;;;;;;6.20;3.42;;;;;;;;;;10491000;28;20068;-81
2022/10/20 14:53:31;;;;;;;4.57;3.42;;;;;;;;;;10485945;28;20041;-81
2022/10/20 14:58:37;;;;;;;4.85;3.67;;;;;;;;;;10494107;28;20056;-80
2022/10/20 15:03:40;;;;;;;;;;;;;;;;;;10478304;28;20055;-81
2022/10/20 15:08:56;;;;;;;3.75;3.08;;;;;;;;;;10481722;28;19921;-80
2022/10/20 15:14:00;;;;;;;5.20;3.05;;;;;;;;;;10466157;28;20052;-79
2022/10/20 15:19:33;;;;;;;5.00;3.50;;;;;;;;;;10479220;28;20043;-80
2022/10/20 15:24:38;;;;;;;4.03;3.15;;;;;;;;;;10467784;28;20041;-80
2022/10/20 15:29:48;;;;;;;4.33;3.13;;;;;;;;;;10487102;28;20040;-80
2022/10/20 15:34:51;;;;;;;3.97;2.70;;;;;;;;;;10478175;28;20481;-80
2022/10/20 15:39:55;;;;;;;4.10;3.42;;;;;;;;;;10487018;28;20043;-80
2022/10/20 15:44:59;;;;;;;4.22;3.45;;;;;;;;;;10476715;28;20063;-80
2022/10/20 15:50:02;;;;;;;3.85;3.15;;;;;;;;;;10478227;28;20119;-80
2022/10/20 15:55:21;;;;;;;3.67;3.05;;;;;;;;;;10467754;28;20562;-79
2022/10/20 16:00:26;;;;;;;3.40;3.05;;;;;;;;;;10487228;28;20044;-81
2022/10/20 16:05:29;;;;;;;4.15;3.40;;;;;;;;;;10468184;28;20068;-79
2022/10/20 16:10:34;;;;;;;3.88;3.08;;;;;;;;;;10485155;28;20040;-80
2022/10/20 16:15:37;;;;;;;4.03;2.63;;;;;;;;;;10494148;28;20407;-79
2022/10/20 16:20:40;;;;;;;3.80;3.08;;;;;;;;;;10476061;28;20044;-80
2022/10/20 16:25:45;;;;;;;5.53;3.40;;;;;;;;;;10484213;28;20504;-77
2022/10/20 16:30:48;;;;;;;4.55;3.38;;;;;;;;;;10469431;28;20055;-79
2022/10/20 16:35:53;;;;;;;5.45;3.47;;;;;;;;;;10488830;28;20042;-79
2022/10/20 16:41:02;;;;;;;5.07;3.60;;;;;;;;;;10467081;28;20090;-80
2022/10/20 16:46:06;;;;;;;3.90;3.20;;;;;;;;;;10483659;28;20535;-79
2022/10/20 16:51:11;;;;;;;5.75;3.50;;;;;;;;;;10463681;28;20118;-79
2022/10/20 16:56:16;;;;;;;5.55;3.60;;;;;;;;;;10480888;28;20050;-79
2022/10/20 17:01:21;;;;;;;5.15;3.63;;;;;;;;;;10479074;28;20466;-79
2022/10/20 17:06:26;;;;;;;7.10;4.05;;;;;;;;;;10474700;28;20500;-80
2022/10/20 17:11:32;;;;;;;4.28;3.38;;;;;;;;;;10476709;28;20041;-81
2022/10/20 17:16:37;;;;;;;;;;;;;;;;;;10467910;28;20048;-79
2022/10/20 17:21:41;;;;;;;5.60;3.65;;;;;;;;;;10474332;28;20296;-79
2022/10/20 17:26:45;;;;;;;5.82;3.50;;;;;;;;;;10472153;28;20036;-79
2022/10/20 17:31:49;;;;;;;6.93;4.82;;;;;;;;;;10479892;28;20139;-80
2022/10/20 17:36:52;;;;;;;6.68;4.57;;;;;;;;;;10465872;28;20053;-79
2022/10/20 17:41:57;;;;;;;5.10;3.78;;;;;;;;;;10480971;28;20683;-79
2022/10/20 17:47:03;;;;;;;5.63;4.18;;;;;;;;;;10456287;28;20057;-80
2022/10/20 17:52:06;;;;;;;6.30;4.28;;;;;;;;;;10481816;28;20041;-79
2022/10/20 17:57:11;;;;;;;8.57;5.82;;;;;;;;;;10479189;28;20866;-79
2022/10/20 18:02:14;;;;;;;8.68;5.93;;;;;;;;;;10472808;28;20056;-79
2022/10/20 18:07:19;;;;;;;10.02;6.72;;;;;;;;;;10463835;28;20712;-78
2022/10/20 18:12:24;;;;;;;10.65;7.22;;;;;;;;;;10465833;28;20493;-79
2022/10/20 18:17:27;;;;;;;7.57;4.65;;;;;;;;;;10479100;28;20044;-79
2022/10/20 18:22:30;;;;;;;6.72;4.63;;;;;;;;;;10471277;28;20124;-78
2022/10/20 18:27:35;;;;;;;5.93;4.20;;;;;;;;;;10491478;28;20501;-78
2022/10/20 18:32:38;;;;;;;8.45;5.72;;;;;;;;;;10488893;28;20519;-79
2022/10/20 18:37:43;;;;;;;8.27;5.18;;;;;;;;;;10474228;28;20041;-77
2022/10/20 18:42:48;;;;;;;7.18;5.72;;;;;;;;;;10476323;28;20626;-78
2022/10/20 18:47:51;;;;;;;6.93;4.90;;;;;;;;;;10485208;28;20048;-78
2022/10/20 18:52:54;;;;;;;6.25;4.95;;;;;;;;;;10485981;28;20049;-79
2022/10/20 18:57:59;;;;;;;6.93;5.03;;;;;;;;;;10480405;28;20061;-79
2022/10/20 19:03:06;;;;;;;6.10;5.05;;;;;;;;;;10475887;28;20071;-79
2022/10/20 19:08:10;;;;;;;5.70;4.82;;;;;;;;;;10469636;28;20071;-79
2022/10/20 19:13:14;;;;;;;6.57;4.88;;;;;;;;;;10480754;28;20051;-79
2022/10/20 19:18:17;;;;;;;12.68;8.07;;;;;;;;;;10473734;28;20041;-79
2022/10/20 19:23:21;;;;;;;6.80;5.30;;;;;;;;;;10472900;28;20060;-80
2022/10/20 19:28:26;;;;;;;7.40;5.22;;;;;;;;;;10485534;28;20049;-80
2022/10/20 19:33:29;;;;;;;4.57;4.10;;;;;;;;;;10484163;28;20771;-79
2022/10/20 19:38:32;;;;;;;7.18;4.72;;;;;;;;;;10483317;28;20045;-80
2022/10/20 19:43:38;;;;;;;5.15;4.18;;;;;;;;;;10481407;28;20036;-79
2022/10/20 19:48:42;;;;;;;8.20;5.60;;;;;;;;;;10491537;28;20040;-79
2022/10/20 19:53:46;;;;;;;6.32;5.00;;;;;;;;;;10482747;28;20352;-79
2022/10/20 19:58:51;;;;;;;7.32;4.97;;;;;;;;;;10481743;28;20718;-79
2022/10/20 20:03:54;;;;;;;4.72;3.65;;;;;;;;;;10484139;28;20048;-78
2022/10/20 20:08:59;;;;;;;5.72;3.17;;;;;;;;;;10468407;28;20040;-79
2022/10/20 20:14:09;;;;;;;4.17;3.43;;;;;;;;;;10470154;28;20041;-79
2022/10/20 20:19:14;;;;;;;4.60;3.65;;;;;;;;;;10474277;28;20036;-79
2022/10/20 20:24:17;;;;;;;6.57;4.80;;;;;;;;;;10463188;28;20455;-79
2022/10/20 20:29:22;;;;;;;6.43;5.10;;;;;;;;;;10486038;28;20045;-80
2022/10/20 20:34:25;;;;;;;4.63;3.67;;;;;;;;;;10484435;28;20442;-78
2022/10/20 20:39:30;;;;;;;11.13;7.30;;;;;;;;;;10476319;28;20466;-78
2022/10/20 20:44:34;;;;;;;10.45;7.55;;;;;;;;;;10459198;28;20041;-77
2022/10/20 20:49:38;;;;;;;14.20;10.40;;;;;;;;;;10464593;28;20122;-79
2022/10/20 20:54:41;;;;;;;7.10;4.78;;;;;;;;;;10478133;28;20049;-77
2022/10/20 20:59:46;;;;;;;6.72;5.32;;;;;;;;;;10472870;28;20041;-79
2022/10/20 21:04:49;;;;;;;7.40;5.60;;;;;;;;;;10488355;28;20064;-79
2022/10/20 21:09:52;;;;;;;8.40;6.18;;;;;;;;;;10476299;28;20052;-79
2022/10/20 21:14:57;;;;;;;9.88;7.93;;;;;;;;;;10458763;28;20044;-77
2022/10/20 21:20:00;;;;;;;11.18;7.25;;;;;;;;;;10472963;28;20036;-81
2022/10/20 21:25:04;;;;;;;9.48;6.57;;;;;;;;;;10482558;28;20051;-81
2022/10/20 21:30:10;;;;;;;11.98;8.35;;;;;;;;;;10465645;28;20044;-76
2022/10/20 21:35:13;;;;;;;9.93;7.07;;;;;;;;;;10481364;28;20660;-79
2022/10/20 21:40:16;;;;;;;9.85;7.53;;;;;;;;;;10465850;28;20087;-79
2022/10/20 21:45:21;;;;;;;7.95;5.07;;;;;;;;;;10460108;28;20045;-79
2022/10/20 21:50:24;;;;;;;8.52;5.60;;;;;;;;;;10485814;28;20032;-78
2022/10/20 21:55:28;;;;;;;8.63;5.65;;;;;;;;;;10473327;28;20041;-79
2022/10/20 22:00:50;;;;;;;8.90;5.22;;;;;;;;;;10478217;28;20067;-79
2022/10/20 22:05:53;;;;;;;4.53;3.85;;;;;;;;;;10483638;28;20048;-79
2022/10/20 22:10:56;;;;;;;5.50;3.88;;;;;;;;;;10477543;28;20396;-80
2022/10/20 22:16:01;;;;;;;4.55;3.15;;;;;;;;;;10484338;28;20445;-80
2022/10/20 22:21:05;;;;;;;4.53;3.38;;;;;;;;;;10483048;28;20037;-80
2022/10/20 22:26:10;;;;;;;;;;;;;;;;;;10489715;28;20068;-80
2022/10/20 22:31:15;;;;;;;6.32;5.03;;;;;;;;;;10483284;28;19926;-80
2022/10/20 22:36:19;;;;;;;4.97;3.75;;;;;;;;;;10480252;28;20036;-79
2022/10/20 22:41:23;;;;;;;6.25;4.78;;;;;;;;;;10488517;28;20048;-79
2022/10/20 22:46:28;;;;;;;5.15;4.03;;;;;;;;;;10482199;28;20467;-80
2022/10/20 22:51:31;;;;;;;5.63;3.85;;;;;;;;;;10472281;28;20059;-79
2022/10/20 22:56:34;;;;;;;8.10;5.15;;;;;;;;;;10488758;28;20040;-79
2022/10/20 23:01:39;;;;;;;6.15;4.68;;;;;;;;;;10473056;28;20040;-79
2022/10/20 23:06:42;;;;;;;10.57;7.03;;;;;;;;;;10488631;28;20381;-80
2022/10/20 23:11:46;;;;;;;9.93;6.50;;;;;;;;;;10472868;28;20047;-81
2022/10/20 23:16:50;;;;;;;7.70;6.00;;;;;;;;;;10472712;28;20056;-81
2022/10/20 23:21:54;;;;;;;3.88;3.15;;;;;;;;;;10479737;28;20083;-81
2022/10/20 23:26:57;;;;;;;2.58;1.85;;;;;;;;;;10490205;28;20043;-81
2022/10/20 23:32:02;;;;;;;3.20;2.65;;;;;;;;;;10487033;28;20036;-80
2022/10/20 23:37:05;;;;;;;2.85;2.42;;;;;;;;;;10486103;28;20150;-80
2022/10/20 23:42:08;;;;;;;2.38;2.15;;;;;;;;;;10479716;28;20036;-80
2022/10/20 23:47:13;;;;;;;4.10;2.40;;;;;;;;;;10478538;28;20450;-80
2022/10/20 23:52:16;;;;;;;2.28;1.73;;;;;;;;;;10479171;28;20048;-80
2022/10/20 23:57:20;;;;;;;1.85;1.50;;;;;;;;;;10479098;28;20390;-80
